sensor_id;sensor_type;location;lat;lon;timestamp;P1;durP1;ratioP1;P2;durP2;ratioP2
11998;SDS011;40817;51.520;9.954;2023-09-07T00:00:30;8.60;;;3.97;;
11998;SDS011;40817;51.520;9.954;2023-09-07T00:02:57;5.75;;;4.30;;
11998;SDS011;40817;51.520;9.954;2023-09-07T00:05:25;7.90;;;4.22;;
11998;SDS011;40817;51.520;9.954;2023-09-07T00:07:52;5.70;;;4.40;;
11998;SDS011;40817;51.520;9.954;2023-09-07T00:10:21;5.95;;;4.00;;
11998;SDS011;40817;51.520;9.954;2023-09-07T00:12:48;8.43;;;4.40;;
11998;SDS011;40817;51.520;9.954;2023-09-07T00:15:17;9.95;;;3.78;;
11998;SDS011;40817;51.520;9.954;2023-09-07T00:17:46;5.22;;;4.18;;
11998;SDS011;40817;51.520;9.954;2023-09-07T00:20:14;4.70;;;3.83;;
11998;SDS011;40817;51.520;9.954;2023-09-07T00:22:41;6.28;;;4.45;;
11998;SDS011;40817;51.520;9.954;2023-09-07T00:25:08;5.47;;;4.13;;
11998;SDS011;40817;51.520;9.954;2023-09-07T00:27:36;7.18;;;4.30;;
11998;SDS011;40817;51.520;9.954;2023-09-07T00:30:04;5.20;;;4.18;;
11998;SDS011;40817;51.520;9.954;2023-09-07T00:32:36;5.22;;;4.05;;
11998;SDS011;40817;51.520;9.954;2023-09-07T00:35:04;5.40;;;3.88;;
11998;SDS011;40817;51.520;9.954;2023-09-07T00:37:32;6.13;;;4.28;;
11998;SDS011;40817;51.520;9.954;2023-09-07T00:40:00;6.45;;;4.65;;
11998;SDS011;40817;51.520;9.954;2023-09-07T00:42:28;6.90;;;4.10;;
11998;SDS011;40817;51.520;9.954;2023-09-07T00:44:56;6.82;;;4.03;;
11998;SDS011;40817;51.520;9.954;2023-09-07T00:47:23;5.65;;;4.20;;
11998;SDS011;40817;51.520;9.954;2023-09-07T00:49:52;6.13;;;4.20;;
11998;SDS011;40817;51.520;9.954;2023-09-07T00:52:20;6.60;;;4.43;;
11998;SDS011;40817;51.520;9.954;2023-09-07T00:54:47;6.35;;;4.25;;
11998;SDS011;40817;51.520;9.954;2023-09-07T00:57:15;6.82;;;4.20;;
11998;SDS011;40817;51.520;9.954;2023-09-07T00:59:42;5.95;;;4.30;;
11998;SDS011;40817;51.520;9.954;2023-09-07T01:02:09;5.32;;;3.70;;
11998;SDS011;40817;51.520;9.954;2023-09-07T01:04:37;5.05;;;3.97;;
11998;SDS011;40817;51.520;9.954;2023-09-07T01:07:07;6.90;;;4.55;;
11998;SDS011;40817;51.520;9.954;2023-09-07T01:09:41;5.82;;;4.47;;
11998;SDS011;40817;51.520;9.954;2023-09-07T01:12:13;7.18;;;4.53;;
11998;SDS011;40817;51.520;9.954;2023-09-07T01:14:41;5.40;;;4.25;;
11998;SDS011;40817;51.520;9.954;2023-09-07T01:17:09;5.72;;;4.10;;
11998;SDS011;40817;51.520;9.954;2023-09-07T01:19:37;8.07;;;4.10;;
11998;SDS011;40817;51.520;9.954;2023-09-07T01:22:06;5.85;;;4.25;;
11998;SDS011;40817;51.520;9.954;2023-09-07T01:24:34;5.38;;;4.22;;
11998;SDS011;40817;51.520;9.954;2023-09-07T01:27:03;5.35;;;4.03;;
11998;SDS011;40817;51.520;9.954;2023-09-07T01:29:31;5.80;;;3.88;;
11998;SDS011;40817;51.520;9.954;2023-09-07T01:31:59;8.52;;;5.07;;
11998;SDS011;40817;51.520;9.954;2023-09-07T01:34:26;5.32;;;4.38;;
11998;SDS011;40817;51.520;9.954;2023-09-07T01:36:53;6.20;;;4.60;;
11998;SDS011;40817;51.520;9.954;2023-09-07T01:39:22;6.43;;;4.07;;
11998;SDS011;40817;51.520;9.954;2023-09-07T01:41:49;5.93;;;4.43;;
11998;SDS011;40817;51.520;9.954;2023-09-07T01:44:16;7.82;;;4.88;;
11998;SDS011;40817;51.520;9.954;2023-09-07T01:46:44;6.75;;;4.80;;
11998;SDS011;40817;51.520;9.954;2023-09-07T01:49:11;7.00;;;4.78;;
11998;SDS011;40817;51.520;9.954;2023-09-07T01:51:38;5.90;;;4.70;;
11998;SDS011;40817;51.520;9.954;2023-09-07T01:54:05;8.00;;;5.07;;
11998;SDS011;40817;51.520;9.954;2023-09-07T01:56:36;8.43;;;4.97;;
11998;SDS011;40817;51.520;9.954;2023-09-07T01:59:04;6.35;;;4.63;;
11998;SDS011;40817;51.520;9.954;2023-09-07T02:01:31;8.10;;;4.47;;
11998;SDS011;40817;51.520;9.954;2023-09-07T02:04:01;8.55;;;4.68;;
11998;SDS011;40817;51.520;9.954;2023-09-07T02:06:29;7.30;;;4.70;;
11998;SDS011;40817;51.520;9.954;2023-09-07T02:08:56;6.70;;;4.88;;
11998;SDS011;40817;51.520;9.954;2023-09-07T02:11:24;7.38;;;4.00;;
11998;SDS011;40817;51.520;9.954;2023-09-07T02:13:52;7.38;;;4.80;;
11998;SDS011;40817;51.520;9.954;2023-09-07T02:16:20;5.90;;;4.30;;
11998;SDS011;40817;51.520;9.954;2023-09-07T02:18:48;6.85;;;4.70;;
11998;SDS011;40817;51.520;9.954;2023-09-07T02:21:16;6.00;;;3.95;;
11998;SDS011;40817;51.520;9.954;2023-09-07T02:23:43;6.80;;;4.28;;
11998;SDS011;40817;51.520;9.954;2023-09-07T02:26:11;5.93;;;4.28;;
11998;SDS011;40817;51.520;9.954;2023-09-07T02:28:38;7.10;;;4.40;;
11998;SDS011;40817;51.520;9.954;2023-09-07T02:31:07;5.93;;;4.38;;
11998;SDS011;40817;51.520;9.954;2023-09-07T02:33:34;6.55;;;4.50;;
11998;SDS011;40817;51.520;9.954;2023-09-07T02:36:02;7.45;;;4.15;;
11998;SDS011;40817;51.520;9.954;2023-09-07T02:38:30;7.13;;;4.55;;
11998;SDS011;40817;51.520;9.954;2023-09-07T02:40:57;6.50;;;4.60;;
11998;SDS011;40817;51.520;9.954;2023-09-07T02:43:24;8.13;;;4.50;;
11998;SDS011;40817;51.520;9.954;2023-09-07T02:45:51;6.95;;;4.25;;
11998;SDS011;40817;51.520;9.954;2023-09-07T02:48:20;8.88;;;4.88;;
11998;SDS011;40817;51.520;9.954;2023-09-07T02:50:47;8.45;;;5.13;;
11998;SDS011;40817;51.520;9.954;2023-09-07T02:53:15;9.30;;;5.22;;
11998;SDS011;40817;51.520;9.954;2023-09-07T02:55:43;8.85;;;5.07;;
11998;SDS011;40817;51.520;9.954;2023-09-07T02:58:10;8.40;;;4.93;;
11998;SDS011;40817;51.520;9.954;2023-09-07T03:00:40;6.07;;;4.53;;
11998;SDS011;40817;51.520;9.954;2023-09-07T03:03:09;8.30;;;4.75;;
11998;SDS011;40817;51.520;9.954;2023-09-07T03:05:40;6.35;;;5.32;;
11998;SDS011;40817;51.520;9.954;2023-09-07T03:08:08;7.55;;;5.40;;
11998;SDS011;40817;51.520;9.954;2023-09-07T03:10:35;7.53;;;4.93;;
11998;SDS011;40817;51.520;9.954;2023-09-07T03:13:04;7.60;;;4.60;;
11998;SDS011;40817;51.520;9.954;2023-09-07T03:15:32;6.10;;;4.95;;
11998;SDS011;40817;51.520;9.954;2023-09-07T03:17:59;7.72;;;5.28;;
11998;SDS011;40817;51.520;9.954;2023-09-07T03:20:27;6.45;;;4.78;;
11998;SDS011;40817;51.520;9.954;2023-09-07T03:22:55;6.40;;;4.63;;
11998;SDS011;40817;51.520;9.954;2023-09-07T03:25:23;7.05;;;4.82;;
11998;SDS011;40817;51.520;9.954;2023-09-07T03:27:50;7.13;;;4.90;;
11998;SDS011;40817;51.520;9.954;2023-09-07T03:30:17;7.38;;;4.88;;
11998;SDS011;40817;51.520;9.954;2023-09-07T03:32:45;7.00;;;5.07;;
11998;SDS011;40817;51.520;9.954;2023-09-07T03:35:12;6.50;;;4.85;;
11998;SDS011;40817;51.520;9.954;2023-09-07T03:37:41;7.97;;;4.50;;
11998;SDS011;40817;51.520;9.954;2023-09-07T03:40:10;7.75;;;4.55;;
11998;SDS011;40817;51.520;9.954;2023-09-07T03:42:38;7.72;;;5.32;;
11998;SDS011;40817;51.520;9.954;2023-09-07T03:45:05;8.68;;;5.53;;
11998;SDS011;40817;51.520;9.954;2023-09-07T03:47:33;7.32;;;5.22;;
11998;SDS011;40817;51.520;9.954;2023-09-07T03:50:01;7.63;;;4.85;;
11998;SDS011;40817;51.520;9.954;2023-09-07T03:52:28;6.95;;;5.07;;
11998;SDS011;40817;51.520;9.954;2023-09-07T03:54:56;7.72;;;4.95;;
11998;SDS011;40817;51.520;9.954;2023-09-07T03:57:27;6.57;;;5.30;;
11998;SDS011;40817;51.520;9.954;2023-09-07T03:59:54;8.07;;;4.85;;
11998;SDS011;40817;51.520;9.954;2023-09-07T04:02:23;9.60;;;5.25;;
11998;SDS011;40817;51.520;9.954;2023-09-07T04:04:51;8.07;;;4.97;;
11998;SDS011;40817;51.520;9.954;2023-09-07T04:07:21;7.35;;;4.65;;
11998;SDS011;40817;51.520;9.954;2023-09-07T04:09:49;7.88;;;5.05;;
11998;SDS011;40817;51.520;9.954;2023-09-07T04:12:19;7.15;;;4.97;;
11998;SDS011;40817;51.520;9.954;2023-09-07T04:14:47;9.63;;;4.93;;
11998;SDS011;40817;51.520;9.954;2023-09-07T04:17:15;7.30;;;4.53;;
11998;SDS011;40817;51.520;9.954;2023-09-07T04:19:42;6.55;;;5.20;;
11998;SDS011;40817;51.520;9.954;2023-09-07T04:22:10;10.80;;;5.57;;
11998;SDS011;40817;51.520;9.954;2023-09-07T04:24:37;8.50;;;5.93;;
11998;SDS011;40817;51.520;9.954;2023-09-07T04:27:05;7.15;;;5.43;;
11998;SDS011;40817;51.520;9.954;2023-09-07T04:29:35;7.53;;;5.13;;
11998;SDS011;40817;51.520;9.954;2023-09-07T04:32:04;8.13;;;5.15;;
11998;SDS011;40817;51.520;9.954;2023-09-07T04:34:31;7.82;;;5.32;;
11998;SDS011;40817;51.520;9.954;2023-09-07T04:36:59;8.52;;;5.60;;
11998;SDS011;40817;51.520;9.954;2023-09-07T04:39:28;8.05;;;5.35;;
11998;SDS011;40817;51.520;9.954;2023-09-07T04:41:58;6.82;;;4.93;;
11998;SDS011;40817;51.520;9.954;2023-09-07T04:44:25;6.78;;;5.40;;
11998;SDS011;40817;51.520;9.954;2023-09-07T04:46:54;7.30;;;4.88;;
11998;SDS011;40817;51.520;9.954;2023-09-07T04:49:23;6.85;;;5.00;;
11998;SDS011;40817;51.520;9.954;2023-09-07T04:51:52;6.90;;;5.28;;
11998;SDS011;40817;51.520;9.954;2023-09-07T04:54:20;8.93;;;5.45;;
11998;SDS011;40817;51.520;9.954;2023-09-07T04:56:47;9.98;;;5.30;;
11998;SDS011;40817;51.520;9.954;2023-09-07T04:59:15;8.27;;;5.53;;
11998;SDS011;40817;51.520;9.954;2023-09-07T05:01:42;7.47;;;5.50;;
11998;SDS011;40817;51.520;9.954;2023-09-07T05:04:09;9.50;;;5.43;;
11998;SDS011;40817;51.520;9.954;2023-09-07T05:06:38;7.68;;;5.32;;
11998;SDS011;40817;51.520;9.954;2023-09-07T05:09:06;8.50;;;5.65;;
11998;SDS011;40817;51.520;9.954;2023-09-07T05:11:34;6.07;;;5.05;;
11998;SDS011;40817;51.520;9.954;2023-09-07T05:14:01;8.10;;;5.40;;
11998;SDS011;40817;51.520;9.954;2023-09-07T05:16:28;7.07;;;4.95;;
11998;SDS011;40817;51.520;9.954;2023-09-07T05:18:55;7.50;;;5.43;;
11998;SDS011;40817;51.520;9.954;2023-09-07T05:21:23;7.32;;;5.43;;
11998;SDS011;40817;51.520;9.954;2023-09-07T05:23:51;8.13;;;5.03;;
11998;SDS011;40817;51.520;9.954;2023-09-07T05:26:20;7.50;;;5.55;;
11998;SDS011;40817;51.520;9.954;2023-09-07T05:28:49;10.25;;;5.68;;
11998;SDS011;40817;51.520;9.954;2023-09-07T05:31:16;10.57;;;5.60;;
11998;SDS011;40817;51.520;9.954;2023-09-07T05:33:44;9.25;;;5.88;;
11998;SDS011;40817;51.520;9.954;2023-09-07T05:36:11;8.23;;;5.38;;
11998;SDS011;40817;51.520;9.954;2023-09-07T05:38:38;9.40;;;6.13;;
11998;SDS011;40817;51.520;9.954;2023-09-07T05:41:07;9.45;;;5.85;;
11998;SDS011;40817;51.520;9.954;2023-09-07T05:43:34;9.13;;;5.78;;
11998;SDS011;40817;51.520;9.954;2023-09-07T05:46:01;12.20;;;6.22;;
11998;SDS011;40817;51.520;9.954;2023-09-07T05:48:28;8.68;;;6.45;;
11998;SDS011;40817;51.520;9.954;2023-09-07T05:50:56;9.80;;;6.32;;
11998;SDS011;40817;51.520;9.954;2023-09-07T05:53:23;9.98;;;6.20;;
11998;SDS011;40817;51.520;9.954;2023-09-07T05:55:51;8.48;;;6.10;;
11998;SDS011;40817;51.520;9.954;2023-09-07T05:58:20;8.50;;;6.35;;
11998;SDS011;40817;51.520;9.954;2023-09-07T06:00:47;8.95;;;6.25;;
11998;SDS011;40817;51.520;9.954;2023-09-07T06:03:14;9.30;;;6.45;;
11998;SDS011;40817;51.520;9.954;2023-09-07T06:05:42;13.85;;;6.90;;
11998;SDS011;40817;51.520;9.954;2023-09-07T06:08:09;8.48;;;5.50;;
11998;SDS011;40817;51.520;9.954;2023-09-07T06:10:36;7.20;;;5.47;;
11998;SDS011;40817;51.520;9.954;2023-09-07T06:13:04;8.30;;;5.75;;
11998;SDS011;40817;51.520;9.954;2023-09-07T06:15:33;8.00;;;5.78;;
11998;SDS011;40817;51.520;9.954;2023-09-07T06:18:00;11.27;;;6.38;;
11998;SDS011;40817;51.520;9.954;2023-09-07T06:20:28;7.53;;;5.20;;
11998;SDS011;40817;51.520;9.954;2023-09-07T06:22:55;9.98;;;5.55;;
11998;SDS011;40817;51.520;9.954;2023-09-07T06:25:22;7.95;;;5.60;;
11998;SDS011;40817;51.520;9.954;2023-09-07T06:27:50;9.73;;;5.65;;
11998;SDS011;40817;51.520;9.954;2023-09-07T06:30:18;3.67;;;2.55;;
11998;SDS011;40817;51.520;9.954;2023-09-07T06:32:47;6.15;;;3.45;;
11998;SDS011;40817;51.520;9.954;2023-09-07T06:35:16;11.35;;;5.13;;
11998;SDS011;40817;51.520;9.954;2023-09-07T06:37:44;9.02;;;5.03;;
11998;SDS011;40817;51.520;9.954;2023-09-07T06:40:11;6.85;;;5.20;;
11998;SDS011;40817;51.520;9.954;2023-09-07T06:42:40;7.18;;;5.00;;
11998;SDS011;40817;51.520;9.954;2023-09-07T06:45:08;6.65;;;5.32;;
11998;SDS011;40817;51.520;9.954;2023-09-07T06:47:36;8.00;;;4.68;;
11998;SDS011;40817;51.520;9.954;2023-09-07T06:50:05;10.20;;;5.60;;
11998;SDS011;40817;51.520;9.954;2023-09-07T06:52:33;8.38;;;5.22;;
11998;SDS011;40817;51.520;9.954;2023-09-07T06:55:00;8.38;;;5.72;;
11998;SDS011;40817;51.520;9.954;2023-09-07T06:57:27;11.30;;;5.97;;
11998;SDS011;40817;51.520;9.954;2023-09-07T06:59:54;8.02;;;5.65;;
11998;SDS011;40817;51.520;9.954;2023-09-07T07:02:22;10.63;;;5.68;;
11998;SDS011;40817;51.520;9.954;2023-09-07T07:04:49;10.52;;;6.28;;
11998;SDS011;40817;51.520;9.954;2023-09-07T07:07:18;9.93;;;6.47;;
11998;SDS011;40817;51.520;9.954;2023-09-07T07:09:45;8.77;;;6.43;;
11998;SDS011;40817;51.520;9.954;2023-09-07T07:12:12;11.05;;;5.80;;
11998;SDS011;40817;51.520;9.954;2023-09-07T07:14:40;7.95;;;6.00;;
11998;SDS011;40817;51.520;9.954;2023-09-07T07:17:07;8.93;;;6.50;;
11998;SDS011;40817;51.520;9.954;2023-09-07T07:19:35;10.27;;;6.68;;
11998;SDS011;40817;51.520;9.954;2023-09-07T07:22:02;13.30;;;7.05;;
11998;SDS011;40817;51.520;9.954;2023-09-07T07:24:31;12.43;;;6.65;;
11998;SDS011;40817;51.520;9.954;2023-09-07T07:26:58;12.35;;;7.03;;
11998;SDS011;40817;51.520;9.954;2023-09-07T07:29:26;17.83;;;7.53;;
11998;SDS011;40817;51.520;9.954;2023-09-07T07:31:53;13.05;;;7.32;;
11998;SDS011;40817;51.520;9.954;2023-09-07T07:34:20;10.80;;;6.30;;
11998;SDS011;40817;51.520;9.954;2023-09-07T07:36:48;10.18;;;6.28;;
11998;SDS011;40817;51.520;9.954;2023-09-07T07:39:15;13.80;;;7.00;;
11998;SDS011;40817;51.520;9.954;2023-09-07T07:41:44;9.15;;;6.50;;
11998;SDS011;40817;51.520;9.954;2023-09-07T07:44:11;8.75;;;6.53;;
11998;SDS011;40817;51.520;9.954;2023-09-07T07:46:39;10.45;;;6.32;;
11998;SDS011;40817;51.520;9.954;2023-09-07T07:49:06;9.85;;;5.65;;
11998;SDS011;40817;51.520;9.954;2023-09-07T07:51:34;11.50;;;6.78;;
11998;SDS011;40817;51.520;9.954;2023-09-07T07:54:01;10.43;;;6.25;;
11998;SDS011;40817;51.520;9.954;2023-09-07T07:56:29;9.60;;;5.93;;
11998;SDS011;40817;51.520;9.954;2023-09-07T07:58:58;11.55;;;6.78;;
11998;SDS011;40817;51.520;9.954;2023-09-07T08:01:25;13.35;;;7.25;;
11998;SDS011;40817;51.520;9.954;2023-09-07T08:03:52;15.45;;;6.18;;
11998;SDS011;40817;51.520;9.954;2023-09-07T08:06:19;9.02;;;6.38;;
11998;SDS011;40817;51.520;9.954;2023-09-07T08:08:47;8.65;;;6.10;;
11998;SDS011;40817;51.520;9.954;2023-09-07T08:11:14;18.00;;;6.88;;
11998;SDS011;40817;51.520;9.954;2023-09-07T08:13:42;11.10;;;6.03;;
11998;SDS011;40817;51.520;9.954;2023-09-07T08:16:12;8.52;;;5.90;;
11998;SDS011;40817;51.520;9.954;2023-09-07T08:18:40;10.57;;;5.45;;
11998;SDS011;40817;51.520;9.954;2023-09-07T08:21:07;10.20;;;5.93;;
11998;SDS011;40817;51.520;9.954;2023-09-07T08:23:34;10.02;;;6.13;;
11998;SDS011;40817;51.520;9.954;2023-09-07T08:26:02;9.68;;;6.03;;
11998;SDS011;40817;51.520;9.954;2023-09-07T08:28:30;13.50;;;5.90;;
11998;SDS011;40817;51.520;9.954;2023-09-07T08:30:57;11.95;;;5.78;;
11998;SDS011;40817;51.520;9.954;2023-09-07T08:33:27;8.85;;;6.22;;
11998;SDS011;40817;51.520;9.954;2023-09-07T08:35:55;10.50;;;5.68;;
11998;SDS011;40817;51.520;9.954;2023-09-07T08:38:25;8.80;;;6.28;;
11998;SDS011;40817;51.520;9.954;2023-09-07T08:40:53;10.35;;;5.70;;
11998;SDS011;40817;51.520;9.954;2023-09-07T08:43:21;23.30;;;6.57;;
11998;SDS011;40817;51.520;9.954;2023-09-07T08:45:50;9.00;;;5.60;;
11998;SDS011;40817;51.520;9.954;2023-09-07T08:48:31;11.35;;;5.53;;
11998;SDS011;40817;51.520;9.954;2023-09-07T08:50:58;9.18;;;5.38;;
11998;SDS011;40817;51.520;9.954;2023-09-07T08:53:27;9.63;;;5.65;;
11998;SDS011;40817;51.520;9.954;2023-09-07T08:55:56;9.75;;;5.57;;
11998;SDS011;40817;51.520;9.954;2023-09-07T08:58:23;10.13;;;5.65;;
11998;SDS011;40817;51.520;9.954;2023-09-07T09:00:51;8.98;;;5.50;;
11998;SDS011;40817;51.520;9.954;2023-09-07T09:03:18;10.30;;;4.97;;
11998;SDS011;40817;51.520;9.954;2023-09-07T09:05:47;11.27;;;5.53;;
11998;SDS011;40817;51.520;9.954;2023-09-07T09:08:16;12.15;;;5.70;;
11998;SDS011;40817;51.520;9.954;2023-09-07T09:10:45;8.43;;;5.38;;
11998;SDS011;40817;51.520;9.954;2023-09-07T09:13:12;9.88;;;5.45;;
11998;SDS011;40817;51.520;9.954;2023-09-07T09:15:40;12.38;;;5.20;;
11998;SDS011;40817;51.520;9.954;2023-09-07T09:18:11;11.18;;;4.78;;
11998;SDS011;40817;51.520;9.954;2023-09-07T09:20:39;7.40;;;4.15;;
11998;SDS011;40817;51.520;9.954;2023-09-07T09:23:08;11.52;;;5.03;;
11998;SDS011;40817;51.520;9.954;2023-09-07T09:25:39;6.18;;;3.67;;
11998;SDS011;40817;51.520;9.954;2023-09-07T09:28:08;6.93;;;3.58;;
11998;SDS011;40817;51.520;9.954;2023-09-07T09:30:36;5.55;;;3.20;;
11998;SDS011;40817;51.520;9.954;2023-09-07T09:33:05;5.38;;;3.40;;
11998;SDS011;40817;51.520;9.954;2023-09-07T09:35:32;5.55;;;3.30;;
11998;SDS011;40817;51.520;9.954;2023-09-07T09:38:01;4.60;;;3.35;;
11998;SDS011;40817;51.520;9.954;2023-09-07T09:40:31;6.43;;;3.50;;
11998;SDS011;40817;51.520;9.954;2023-09-07T09:43:01;6.97;;;3.40;;
11998;SDS011;40817;51.520;9.954;2023-09-07T09:45:29;6.03;;;3.60;;
11998;SDS011;40817;51.520;9.954;2023-09-07T09:47:58;4.97;;;2.85;;
11998;SDS011;40817;51.520;9.954;2023-09-07T09:50:25;5.97;;;3.67;;
11998;SDS011;40817;51.520;9.954;2023-09-07T09:52:53;7.18;;;3.30;;
11998;SDS011;40817;51.520;9.954;2023-09-07T09:55:21;5.40;;;3.47;;
11998;SDS011;40817;51.520;9.954;2023-09-07T09:57:51;7.85;;;3.10;;
11998;SDS011;40817;51.520;9.954;2023-09-07T10:00:22;5.15;;;3.20;;
11998;SDS011;40817;51.520;9.954;2023-09-07T10:02:54;5.10;;;3.33;;
11998;SDS011;40817;51.520;9.954;2023-09-07T10:05:28;5.22;;;3.08;;
11998;SDS011;40817;51.520;9.954;2023-09-07T10:08:00;5.55;;;3.08;;
11998;SDS011;40817;51.520;9.954;2023-09-07T10:10:34;4.88;;;3.20;;
11998;SDS011;40817;51.520;9.954;2023-09-07T10:13:05;5.07;;;3.22;;
11998;SDS011;40817;51.520;9.954;2023-09-07T10:15:32;5.38;;;3.30;;
11998;SDS011;40817;51.520;9.954;2023-09-07T10:18:05;8.80;;;3.50;;
11998;SDS011;40817;51.520;9.954;2023-09-07T10:20:46;6.40;;;3.63;;
11998;SDS011;40817;51.520;9.954;2023-09-07T10:23:21;5.68;;;3.30;;
11998;SDS011;40817;51.520;9.954;2023-09-07T10:25:50;3.92;;;3.40;;
11998;SDS011;40817;51.520;9.954;2023-09-07T10:28:22;6.80;;;3.40;;
11998;SDS011;40817;51.520;9.954;2023-09-07T10:30:57;4.53;;;3.65;;
11998;SDS011;40817;51.520;9.954;2023-09-07T10:33:28;3.85;;;2.92;;
11998;SDS011;40817;51.520;9.954;2023-09-07T10:35:56;4.47;;;3.47;;
11998;SDS011;40817;51.520;9.954;2023-09-07T10:38:23;4.88;;;3.00;;
11998;SDS011;40817;51.520;9.954;2023-09-07T10:40:54;5.03;;;3.05;;
11998;SDS011;40817;51.520;9.954;2023-09-07T10:43:25;4.03;;;3.20;;
11998;SDS011;40817;51.520;9.954;2023-09-07T10:45:53;6.90;;;3.53;;
11998;SDS011;40817;51.520;9.954;2023-09-07T10:48:22;7.03;;;3.70;;
11998;SDS011;40817;51.520;9.954;2023-09-07T10:50:50;5.97;;;3.33;;
11998;SDS011;40817;51.520;9.954;2023-09-07T10:53:24;4.10;;;2.92;;
11998;SDS011;40817;51.520;9.954;2023-09-07T10:55:54;5.68;;;3.28;;
11998;SDS011;40817;51.520;9.954;2023-09-07T10:58:26;5.60;;;2.90;;
11998;SDS011;40817;51.520;9.954;2023-09-07T11:00:57;7.50;;;3.55;;
11998;SDS011;40817;51.520;9.954;2023-09-07T11:03:25;4.82;;;3.30;;
11998;SDS011;40817;51.520;9.954;2023-09-07T11:05:54;4.65;;;3.30;;
11998;SDS011;40817;51.520;9.954;2023-09-07T11:08:25;4.00;;;3.20;;
11998;SDS011;40817;51.520;9.954;2023-09-07T11:10:54;4.13;;;3.08;;
11998;SDS011;40817;51.520;9.954;2023-09-07T11:13:22;4.75;;;3.45;;
11998;SDS011;40817;51.520;9.954;2023-09-07T11:15:53;4.88;;;3.08;;
11998;SDS011;40817;51.520;9.954;2023-09-07T11:18:22;6.57;;;3.08;;
11998;SDS011;40817;51.520;9.954;2023-09-07T11:20:50;4.90;;;3.00;;
11998;SDS011;40817;51.520;9.954;2023-09-07T11:23:20;4.68;;;3.08;;
11998;SDS011;40817;51.520;9.954;2023-09-07T11:25:48;4.20;;;3.10;;
11998;SDS011;40817;51.520;9.954;2023-09-07T11:28:17;8.82;;;3.45;;
11998;SDS011;40817;51.520;9.954;2023-09-07T11:30:49;5.45;;;3.17;;
11998;SDS011;40817;51.520;9.954;2023-09-07T11:33:18;5.07;;;3.15;;
11998;SDS011;40817;51.520;9.954;2023-09-07T11:35:47;6.60;;;3.05;;
11998;SDS011;40817;51.520;9.954;2023-09-07T11:38:15;4.57;;;3.35;;
11998;SDS011;40817;51.520;9.954;2023-09-07T11:40:44;3.85;;;3.25;;
11998;SDS011;40817;51.520;9.954;2023-09-07T11:43:11;5.72;;;3.10;;
11998;SDS011;40817;51.520;9.954;2023-09-07T11:45:40;6.72;;;2.60;;
11998;SDS011;40817;51.520;9.954;2023-09-07T11:48:10;4.85;;;2.83;;
11998;SDS011;40817;51.520;9.954;2023-09-07T11:50:39;7.60;;;3.10;;
11998;SDS011;40817;51.520;9.954;2023-09-07T11:53:06;4.15;;;3.10;;
11998;SDS011;40817;51.520;9.954;2023-09-07T11:55:34;3.63;;;3.05;;
11998;SDS011;40817;51.520;9.954;2023-09-07T11:58:02;4.00;;;3.20;;
11998;SDS011;40817;51.520;9.954;2023-09-07T12:00:30;4.80;;;2.90;;
11998;SDS011;40817;51.520;9.954;2023-09-07T12:02:58;6.43;;;3.35;;
11998;SDS011;40817;51.520;9.954;2023-09-07T12:05:27;3.85;;;2.88;;
11998;SDS011;40817;51.520;9.954;2023-09-07T12:07:54;3.60;;;3.00;;
11998;SDS011;40817;51.520;9.954;2023-09-07T12:10:21;3.70;;;3.10;;
11998;SDS011;40817;51.520;9.954;2023-09-07T12:12:49;7.10;;;3.40;;
11998;SDS011;40817;51.520;9.954;2023-09-07T12:15:16;6.38;;;3.60;;
11998;SDS011;40817;51.520;9.954;2023-09-07T12:17:43;4.22;;;2.90;;
11998;SDS011;40817;51.520;9.954;2023-09-07T12:20:10;5.80;;;2.95;;
11998;SDS011;40817;51.520;9.954;2023-09-07T12:22:40;6.10;;;3.42;;
11998;SDS011;40817;51.520;9.954;2023-09-07T12:25:08;4.90;;;3.10;;
11998;SDS011;40817;51.520;9.954;2023-09-07T12:27:36;6.75;;;3.15;;
11998;SDS011;40817;51.520;9.954;2023-09-07T12:30:03;7.28;;;3.65;;
11998;SDS011;40817;51.520;9.954;2023-09-07T12:32:37;5.82;;;3.10;;
11998;SDS011;40817;51.520;9.954;2023-09-07T12:35:05;6.85;;;3.45;;
11998;SDS011;40817;51.520;9.954;2023-09-07T12:37:34;5.00;;;2.72;;
11998;SDS011;40817;51.520;9.954;2023-09-07T12:40:03;4.45;;;2.85;;
11998;SDS011;40817;51.520;9.954;2023-09-07T12:42:38;4.82;;;2.72;;
11998;SDS011;40817;51.520;9.954;2023-09-07T12:45:07;3.95;;;3.17;;
11998;SDS011;40817;51.520;9.954;2023-09-07T12:47:36;9.20;;;3.40;;
11998;SDS011;40817;51.520;9.954;2023-09-07T12:50:03;7.00;;;3.13;;
11998;SDS011;40817;51.520;9.954;2023-09-07T12:52:32;6.45;;;2.70;;
11998;SDS011;40817;51.520;9.954;2023-09-07T12:55:04;5.53;;;2.90;;
11998;SDS011;40817;51.520;9.954;2023-09-07T12:57:33;3.33;;;2.95;;
11998;SDS011;40817;51.520;9.954;2023-09-07T13:00:01;6.38;;;3.33;;
11998;SDS011;40817;51.520;9.954;2023-09-07T13:02:31;5.32;;;3.28;;
11998;SDS011;40817;51.520;9.954;2023-09-07T13:04:58;5.55;;;3.30;;
11998;SDS011;40817;51.520;9.954;2023-09-07T13:07:25;4.68;;;2.67;;
11998;SDS011;40817;51.520;9.954;2023-09-07T13:09:52;4.38;;;3.03;;
11998;SDS011;40817;51.520;9.954;2023-09-07T13:12:21;6.82;;;2.83;;
11998;SDS011;40817;51.520;9.954;2023-09-07T13:14:49;7.70;;;2.97;;
11998;SDS011;40817;51.520;9.954;2023-09-07T13:17:16;4.25;;;2.70;;
11998;SDS011;40817;51.520;9.954;2023-09-07T13:19:44;14.05;;;2.70;;
11998;SDS011;40817;51.520;9.954;2023-09-07T13:22:13;3.83;;;2.65;;
11998;SDS011;40817;51.520;9.954;2023-09-07T13:24:41;3.60;;;2.55;;
11998;SDS011;40817;51.520;9.954;2023-09-07T13:27:08;4.13;;;2.55;;
11998;SDS011;40817;51.520;9.954;2023-09-07T13:29:37;5.20;;;3.13;;
11998;SDS011;40817;51.520;9.954;2023-09-07T13:32:04;3.63;;;2.80;;
11998;SDS011;40817;51.520;9.954;2023-09-07T13:34:32;4.85;;;3.35;;
11998;SDS011;40817;51.520;9.954;2023-09-07T13:36:59;4.43;;;2.92;;
11998;SDS011;40817;51.520;9.954;2023-09-07T13:39:27;4.70;;;2.92;;
11998;SDS011;40817;51.520;9.954;2023-09-07T13:41:54;6.05;;;2.88;;
11998;SDS011;40817;51.520;9.954;2023-09-07T13:44:21;4.93;;;2.83;;
11998;SDS011;40817;51.520;9.954;2023-09-07T13:46:50;5.15;;;2.90;;
11998;SDS011;40817;51.520;9.954;2023-09-07T13:49:19;4.50;;;2.80;;
11998;SDS011;40817;51.520;9.954;2023-09-07T13:51:46;4.85;;;2.70;;
11998;SDS011;40817;51.520;9.954;2023-09-07T13:54:13;5.28;;;3.10;;
11998;SDS011;40817;51.520;9.954;2023-09-07T13:56:40;3.58;;;2.70;;
11998;SDS011;40817;51.520;9.954;2023-09-07T13:59:10;3.90;;;2.50;;
11998;SDS011;40817;51.520;9.954;2023-09-07T14:01:37;5.97;;;2.80;;
11998;SDS011;40817;51.520;9.954;2023-09-07T14:04:06;5.22;;;3.08;;
11998;SDS011;40817;51.520;9.954;2023-09-07T14:06:33;4.13;;;2.80;;
11998;SDS011;40817;51.520;9.954;2023-09-07T14:09:01;4.35;;;2.70;;
11998;SDS011;40817;51.520;9.954;2023-09-07T14:11:29;3.45;;;2.83;;
11998;SDS011;40817;51.520;9.954;2023-09-07T14:13:58;4.03;;;2.72;;
11998;SDS011;40817;51.520;9.954;2023-09-07T14:16:25;5.82;;;3.08;;
11998;SDS011;40817;51.520;9.954;2023-09-07T14:18:52;4.55;;;2.90;;
11998;SDS011;40817;51.520;9.954;2023-09-07T14:21:22;4.90;;;2.50;;
11998;SDS011;40817;51.520;9.954;2023-09-07T14:23:49;7.32;;;3.05;;
11998;SDS011;40817;51.520;9.954;2023-09-07T14:26:17;3.72;;;2.63;;
11998;SDS011;40817;51.520;9.954;2023-09-07T14:28:44;6.43;;;2.80;;
11998;SDS011;40817;51.520;9.954;2023-09-07T14:31:11;6.45;;;3.03;;
11998;SDS011;40817;51.520;9.954;2023-09-07T14:33:38;4.30;;;2.60;;
11998;SDS011;40817;51.520;9.954;2023-09-07T14:36:07;3.97;;;2.75;;
11998;SDS011;40817;51.520;9.954;2023-09-07T14:38:36;7.93;;;2.88;;
11998;SDS011;40817;51.520;9.954;2023-09-07T14:41:06;5.35;;;2.65;;
11998;SDS011;40817;51.520;9.954;2023-09-07T14:43:36;5.82;;;3.05;;
11998;SDS011;40817;51.520;9.954;2023-09-07T14:46:03;4.80;;;3.13;;
11998;SDS011;40817;51.520;9.954;2023-09-07T14:48:31;4.63;;;2.80;;
11998;SDS011;40817;51.520;9.954;2023-09-07T14:50:58;4.53;;;2.92;;